createdAt,value
2022-09-14T00:01:44.623Z,1.44
2022-09-14T00:06:44.445Z,1.19
2022-09-14T00:11:44.504Z,1.36
2022-09-14T00:16:44.517Z,1.4
2022-09-14T00:21:44.493Z,1.39
2022-09-14T00:26:44.481Z,1.38
2022-09-14T00:31:44.543Z,1.53
2022-09-14T00:36:44.456Z,1.38
2022-09-14T00:41:44.470Z,1.47
2022-09-14T00:46:44.466Z,1.22
2022-09-14T00:51:44.488Z,1.29
2022-09-14T00:56:44.494Z,1.13
2022-09-14T01:01:44.509Z,1.31
2022-09-14T01:06:44.476Z,1.43
2022-09-14T01:11:46.363Z,1.3
2022-09-14T01:16:44.555Z,1.31
2022-09-14T01:21:44.514Z,1.38
2022-09-14T01:26:44.507Z,1.35
2022-09-14T01:31:44.523Z,1.41
2022-09-14T01:36:44.492Z,1.35
2022-09-14T01:41:44.497Z,1.49
2022-09-14T01:46:44.514Z,1.33
2022-09-14T01:51:44.532Z,1.3
2022-09-14T01:56:44.541Z,1.5
2022-09-14T02:01:46.448Z,1.37
2022-09-14T02:06:44.507Z,1.38
2022-09-14T02:11:44.508Z,1.39
2022-09-14T02:16:44.564Z,1.5
2022-09-14T02:21:44.516Z,1.43
2022-09-14T02:26:44.521Z,1.36
2022-09-14T02:31:44.606Z,1.46
2022-09-14T02:36:44.525Z,1.37
2022-09-14T02:41:44.525Z,1.28
2022-09-14T02:46:44.626Z,1.47
2022-09-14T02:51:44.529Z,1.44
2022-09-14T02:56:44.546Z,1.33
2022-09-14T03:01:44.640Z,1.58
2022-09-14T03:06:44.562Z,1.36
2022-09-14T03:11:44.565Z,1.47
2022-09-14T03:16:44.563Z,1.43
2022-09-14T03:21:44.580Z,1.43
2022-09-14T03:26:44.573Z,1.3
2022-09-14T03:31:44.667Z,1.51
2022-09-14T03:38:40.277Z,1.41
2022-09-14T03:43:40.293Z,1.57
2022-09-14T03:48:40.290Z,1.57
2022-09-14T03:53:40.365Z,1.65
2022-09-14T03:58:40.322Z,1.63
2022-09-14T04:03:40.349Z,1.53
2022-09-14T04:08:40.416Z,1.57
2022-09-14T04:13:40.328Z,1.46
2022-09-14T04:18:40.303Z,1.25
2022-09-14T04:23:56.877Z,1.36
2022-09-14T04:28:40.306Z,1.36
2022-09-14T04:33:40.337Z,1.33
2022-09-14T04:38:40.307Z,1.46
2022-09-14T04:43:40.339Z,1.62
2022-09-14T04:48:40.400Z,1.55
2022-09-14T04:53:40.350Z,1.38
2022-09-14T04:58:40.347Z,1.37
2022-09-14T05:03:40.461Z,1.44
2022-09-14T05:08:40.353Z,1.45
2022-09-14T05:13:40.326Z,1.36
2022-09-14T05:18:40.374Z,1.53
2022-09-14T05:23:40.360Z,1.55
2022-09-14T05:28:40.368Z,1.57
2022-09-14T05:38:40.371Z,1.53
2022-09-14T05:43:40.340Z,1.66
2022-09-14T05:48:40.365Z,1.61
2022-09-14T05:53:40.333Z,1.53
2022-09-14T05:58:40.352Z,1.34
2022-09-14T06:03:40.438Z,1.49
2022-09-14T06:08:40.392Z,1.47
2022-09-14T06:13:40.423Z,1.47
2022-09-14T06:18:40.356Z,1.58
2022-09-14T06:23:40.377Z,2.61
2022-09-14T06:28:40.356Z,1.8
2022-09-14T06:33:40.355Z,1.38
2022-09-14T06:38:40.526Z,1.58
2022-09-14T06:43:40.362Z,1.55
2022-09-14T06:48:40.375Z,1.41
2022-09-14T06:53:40.439Z,1.53
2022-09-14T06:58:40.380Z,1.47
2022-09-14T07:03:40.371Z,1.36
2022-09-14T07:08:40.399Z,1.53
2022-09-14T07:13:40.390Z,1.33
2022-09-14T07:18:40.464Z,1.29
2022-09-14T07:23:40.394Z,1.38
2022-09-14T07:28:40.412Z,1.43
2022-09-14T07:33:40.447Z,1.56
2022-09-14T07:38:51.952Z,1.59
2022-09-14T07:43:40.427Z,1.44
2022-09-14T07:48:40.441Z,1.59
2022-09-14T07:53:40.410Z,1.63
2022-09-14T07:58:40.410Z,1.65
2022-09-14T08:03:40.500Z,1.69
2022-09-14T08:08:40.416Z,1.59
2022-09-14T08:13:40.451Z,1.61
2022-09-14T08:18:40.497Z,1.55
2022-09-14T08:23:40.465Z,1.59
2022-09-14T08:28:40.465Z,1.56
2022-09-14T08:33:40.454Z,1.52
2022-09-14T08:38:40.433Z,1.49
2022-09-14T08:43:40.478Z,1.45
2022-09-14T08:48:40.438Z,1.65
2022-09-14T08:53:40.552Z,1.48
2022-09-14T08:58:45.212Z,1.72
2022-09-14T09:03:40.527Z,1.7
2022-09-14T09:08:40.476Z,1.5
2022-09-14T09:13:40.444Z,1.53
2022-09-14T09:18:40.497Z,1.36
2022-09-14T09:23:40.459Z,1.47
2022-09-14T09:28:40.497Z,1.56
2022-09-14T09:33:40.540Z,1.42
2022-09-14T09:38:40.466Z,1.32
2022-09-14T09:43:49.164Z,1.4
2022-09-14T09:48:40.506Z,1.31
2022-09-14T09:53:40.509Z,1.42
2022-09-14T09:58:40.489Z,1.55
2022-09-14T10:03:40.591Z,1.22
2022-09-14T10:08:40.513Z,1.48
2022-09-14T10:13:40.509Z,1.4
2022-09-14T10:18:40.530Z,1.32
2022-09-14T10:23:40.567Z,1.19
2022-09-14T10:28:40.629Z,1.38
2022-09-14T10:33:40.502Z,1.45
2022-09-14T10:38:40.574Z,1.41
2022-09-14T10:43:40.528Z,1.42
2022-09-14T10:48:40.617Z,1.36
2022-09-14T10:53:40.542Z,1.18
2022-09-14T10:58:40.582Z,1.29
2022-09-14T11:03:44.032Z,1.42
2022-09-14T11:08:40.541Z,1.32
2022-09-14T11:13:40.545Z,1.41
2022-09-14T11:18:40.525Z,1.45
2022-09-14T11:23:40.548Z,1.22
2022-09-14T11:28:40.571Z,1.62
2022-09-14T11:33:40.554Z,1.68
2022-09-14T11:38:40.537Z,1.53
2022-09-14T11:43:40.590Z,1.56
2022-09-14T11:48:42.996Z,1.35
2022-09-14T11:53:40.543Z,1.18
2022-09-14T11:58:40.613Z,1.24
2022-09-14T12:03:40.600Z,1.27
2022-09-14T12:08:40.566Z,1.33
2022-09-14T12:13:40.648Z,1.32
2022-09-14T12:18:40.573Z,1.24
2022-09-14T12:23:40.610Z,1.2
2022-09-14T12:28:40.603Z,1.19
2022-09-14T12:33:40.678Z,1.23
2022-09-14T12:38:40.623Z,1.25
2022-09-14T12:43:40.583Z,1.19
2022-09-14T12:48:40.612Z,1.31
2022-09-14T12:53:40.612Z,1.38
2022-09-14T12:58:40.617Z,1.44
2022-09-14T13:03:40.631Z,1.38
2022-09-14T13:08:40.619Z,1.42
2022-09-14T13:13:40.648Z,1.42
2022-09-14T13:18:40.599Z,1.97
2022-09-14T13:23:40.600Z,4.16
2022-09-14T13:28:40.667Z,4.92
2022-09-14T13:33:40.617Z,3.18
2022-09-14T13:38:40.681Z,2.36
2022-09-14T13:43:40.644Z,2.19
2022-09-14T13:48:40.600Z,2.36
2022-09-14T13:53:40.664Z,2.45
2022-09-14T13:58:40.683Z,3.26
2022-09-14T14:03:40.732Z,3.72
2022-09-14T14:08:40.612Z,6.07
2022-09-14T14:13:40.750Z,6.16
2022-09-14T14:18:40.630Z,3.76
2022-09-14T14:23:56.627Z,2.47
2022-09-14T14:28:40.740Z,2.62
2022-09-14T14:33:40.668Z,2.26
2022-09-14T14:38:40.676Z,2.19
2022-09-14T14:43:40.682Z,1.93
2022-09-14T14:48:40.644Z,2.22
2022-09-14T14:53:40.659Z,2.86
2022-09-14T14:58:40.681Z,2.54
2022-09-14T15:03:40.701Z,2.02
2022-09-14T15:08:40.751Z,1.79
2022-09-14T15:13:40.693Z,1.83
2022-09-14T15:18:40.692Z,1.71
2022-09-14T15:28:40.665Z,1.99
2022-09-14T15:33:40.671Z,1.98
2022-09-14T15:38:40.706Z,2.02
2022-09-14T15:43:40.709Z,2.11
2022-09-14T15:48:40.710Z,1.78
2022-09-14T15:53:40.746Z,1.6
2022-09-14T15:58:42.756Z,1.39
2022-09-14T16:03:40.744Z,1.4
2022-09-14T16:08:40.786Z,1.34
2022-09-14T16:13:40.774Z,1.31
2022-09-14T16:18:40.730Z,1.22
2022-09-14T16:23:40.710Z,1.29
2022-09-14T16:28:40.736Z,1.36
2022-09-14T16:38:40.720Z,1.28
2022-09-14T16:43:40.739Z,1.29
2022-09-14T16:48:40.751Z,1.32
2022-09-14T16:53:40.737Z,1.3
2022-09-14T16:58:40.704Z,1.42
2022-09-14T17:03:40.720Z,1.61
2022-09-14T17:08:43.749Z,1.92
2022-09-14T17:13:40.752Z,1.93
2022-09-14T17:18:40.731Z,2.63
2022-09-14T17:23:40.773Z,3.4
2022-09-14T17:28:40.771Z,2.8
2022-09-14T17:33:40.762Z,1.98
2022-09-14T17:38:40.775Z,1.98
2022-09-14T17:43:40.857Z,1.6
2022-09-14T17:48:40.754Z,1.62
2022-09-14T17:53:40.777Z,1.65
2022-09-14T17:58:40.831Z,1.72
2022-09-14T18:03:40.841Z,1.42
2022-09-14T18:08:40.758Z,1.67
2022-09-14T18:13:40.746Z,1.68
2022-09-14T18:18:40.754Z,1.99
2022-09-14T18:23:40.756Z,2.04
2022-09-14T18:28:40.825Z,1.64
2022-09-14T18:33:40.772Z,1.68
2022-09-14T18:38:40.793Z,1.69
2022-09-14T18:43:40.824Z,1.81
2022-09-14T18:48:40.795Z,1.85
2022-09-14T18:53:40.828Z,1.7
2022-09-14T18:58:40.771Z,1.96
2022-09-14T19:03:40.762Z,1.84
2022-09-14T19:08:40.813Z,1.93
2022-09-14T19:13:40.763Z,1.73
2022-09-14T19:18:40.810Z,1.89
2022-09-14T19:23:40.856Z,1.86
2022-09-14T19:28:40.786Z,1.62
2022-09-14T19:33:44.653Z,1.72
2022-09-14T19:38:40.828Z,1.59
2022-09-14T19:43:40.792Z,1.6
2022-09-14T19:48:40.790Z,1.57
2022-09-14T19:53:40.828Z,1.52
2022-09-14T20:03:40.873Z,1.5
2022-09-14T20:11:09.359Z,1.39
2022-09-14T20:16:09.396Z,1.37
2022-09-14T20:21:09.368Z,1.35
2022-09-14T20:26:09.363Z,1.38
2022-09-14T20:31:09.402Z,1.31
2022-09-14T20:36:09.381Z,1.44
2022-09-14T20:41:09.380Z,1.24
2022-09-14T20:46:09.424Z,1.01
2022-09-14T20:51:09.388Z,1.01
2022-09-14T20:56:09.416Z,0.94
2022-09-14T21:01:09.412Z,1.01
2022-09-14T21:06:09.424Z,0.87
2022-09-14T21:11:09.402Z,0.77
2022-09-14T21:16:09.487Z,0.72
2022-09-14T21:21:09.432Z,0.93
2022-09-14T21:26:09.400Z,1.97
2022-09-14T21:31:09.554Z,0.83
2022-09-14T21:36:09.414Z,0.99
2022-09-14T21:41:09.431Z,0.98
2022-09-14T21:46:09.471Z,1.16
2022-09-14T21:51:09.416Z,0.88
2022-09-14T21:56:09.462Z,0.85
2022-09-14T22:01:09.528Z,0.68
2022-09-14T22:06:09.450Z,0.71
2022-09-14T22:11:09.478Z,0.9
2022-09-14T22:16:09.525Z,0.73
2022-09-14T22:26:09.464Z,0.75
2022-09-14T22:31:09.529Z,0.72
2022-09-14T22:36:09.479Z,0.72
2022-09-14T22:41:09.461Z,0.71
2022-09-14T22:46:09.501Z,0.7
2022-09-14T22:51:09.476Z,0.69
2022-09-14T22:56:09.472Z,0.74
2022-09-14T23:01:09.450Z,0.68
2022-09-14T23:06:09.437Z,0.65
2022-09-14T23:11:09.456Z,0.78
2022-09-14T23:16:09.466Z,0.83
2022-09-14T23:21:09.449Z,0.68
2022-09-14T23:26:09.484Z,0.66
2022-09-14T23:31:09.541Z,0.86
2022-09-14T23:36:09.491Z,1.01
2022-09-14T23:41:09.466Z,0.91
2022-09-14T23:46:09.542Z,0.78
2022-09-14T23:51:09.464Z,0.85
